createdAt,value
2017-10-06T00:01:11.822Z,21.34
2017-10-06T00:03:39.119Z,21.33
2017-10-06T00:06:06.318Z,21.32
2017-10-06T00:08:33.529Z,21.31
2017-10-06T00:11:00.784Z,21.30
2017-10-06T00:13:27.987Z,21.30
2017-10-06T00:15:55.229Z,21.28
2017-10-06T00:18:22.485Z,21.27
2017-10-06T00:20:49.714Z,21.26
2017-10-06T00:23:17.022Z,21.25
2017-10-06T00:25:44.579Z,21.24
2017-10-06T00:28:11.883Z,21.23
2017-10-06T00:30:39.156Z,21.21
2017-10-06T00:33:06.411Z,21.21
2017-10-06T00:35:33.834Z,21.18
2017-10-06T00:38:01.040Z,21.18
2017-10-06T00:40:28.488Z,21.16
2017-10-06T00:42:55.703Z,21.16
2017-10-06T00:45:22.928Z,21.14
2017-10-06T00:47:50.209Z,21.13
2017-10-06T00:50:17.603Z,21.13
2017-10-06T00:52:44.857Z,21.12
2017-10-06T00:55:12.204Z,21.10
2017-10-06T00:57:39.486Z,21.10
2017-10-06T01:00:06.687Z,21.08
2017-10-06T01:02:34.006Z,21.11
2017-10-06T01:05:01.399Z,21.17
2017-10-06T01:07:28.610Z,21.18
2017-10-06T01:09:55.808Z,21.17
2017-10-06T01:12:23.062Z,21.14
2017-10-06T01:14:50.275Z,21.10
2017-10-06T01:17:17.531Z,21.05
2017-10-06T01:19:44.731Z,21.03
2017-10-06T01:22:11.946Z,20.96
2017-10-06T01:24:39.246Z,20.88
2017-10-06T01:27:06.467Z,20.83
2017-10-06T01:29:33.625Z,20.83
2017-10-06T01:32:00.858Z,20.79
2017-10-06T01:34:28.100Z,20.75
2017-10-06T01:36:55.365Z,20.73
2017-10-06T01:39:22.579Z,20.71
2017-10-06T01:41:49.744Z,20.69
2017-10-06T01:44:16.959Z,20.63
2017-10-06T01:46:44.201Z,20.59
2017-10-06T01:49:11.403Z,20.57
2017-10-06T01:51:38.647Z,20.55
2017-10-06T01:54:05.932Z,20.53
2017-10-06T01:56:33.107Z,20.52
2017-10-06T01:59:00.308Z,20.49
2017-10-06T02:01:27.609Z,20.44
2017-10-06T02:03:54.793Z,20.42
2017-10-06T02:06:22.110Z,20.42
2017-10-06T02:08:49.415Z,20.39
2017-10-06T02:11:16.707Z,20.41
2017-10-06T02:13:43.917Z,20.40
2017-10-06T02:16:11.095Z,20.37
2017-10-06T02:18:38.335Z,20.36
2017-10-06T02:21:05.525Z,20.34
2017-10-06T02:23:32.742Z,20.33
2017-10-06T02:26:00.004Z,20.33
2017-10-06T02:28:27.253Z,20.29
2017-10-06T02:30:54.463Z,20.30
2017-10-06T02:33:21.651Z,20.28
2017-10-06T02:35:48.960Z,20.25
2017-10-06T02:38:16.163Z,20.25
2017-10-06T02:40:43.414Z,20.23
2017-10-06T02:43:10.663Z,20.24
2017-10-06T02:45:37.847Z,20.22
2017-10-06T02:48:05.116Z,20.19
2017-10-06T02:50:32.374Z,20.18
2017-10-06T02:52:59.677Z,20.18
2017-10-06T02:55:26.958Z,20.18
2017-10-06T02:57:54.213Z,20.16
2017-10-06T03:00:21.432Z,20.13
2017-10-06T03:02:48.845Z,20.10
2017-10-06T03:05:16.062Z,20.10
2017-10-06T03:07:43.252Z,20.09
2017-10-06T03:10:10.450Z,20.07
2017-10-06T03:12:38.606Z,20.06
2017-10-06T03:15:05.823Z,20.05
2017-10-06T03:17:33.202Z,20.06
2017-10-06T03:20:00.364Z,20.05
2017-10-06T03:22:27.534Z,20.05
2017-10-06T03:24:54.771Z,20.04
2017-10-06T03:27:21.986Z,20.03
2017-10-06T03:29:49.193Z,20.01
2017-10-06T03:32:16.441Z,20.00
2017-10-06T03:34:43.727Z,19.99
2017-10-06T03:37:11.027Z,19.98
2017-10-06T03:39:38.349Z,19.96
2017-10-06T03:42:05.629Z,19.96
2017-10-06T03:44:32.807Z,19.99
2017-10-06T03:47:00.008Z,20.01
2017-10-06T03:49:27.229Z,20.05
2017-10-06T03:51:54.422Z,20.05
2017-10-06T03:54:21.618Z,20.10
2017-10-06T03:56:48.899Z,20.13
2017-10-06T03:59:16.112Z,20.15
2017-10-06T04:01:43.349Z,20.20
2017-10-06T04:04:10.505Z,20.24
2017-10-06T04:06:37.811Z,20.28
2017-10-06T04:09:05.055Z,20.30
2017-10-06T04:11:32.308Z,20.30
2017-10-06T04:13:59.641Z,20.32
2017-10-06T04:16:26.868Z,20.36
2017-10-06T04:18:54.286Z,20.38
2017-10-06T04:21:21.536Z,20.41
2017-10-06T04:23:48.986Z,20.41
2017-10-06T04:26:16.399Z,20.42
2017-10-06T04:28:43.736Z,20.42
2017-10-06T04:31:11.066Z,20.43
2017-10-06T04:33:38.339Z,20.43
2017-10-06T04:36:05.568Z,20.46
2017-10-06T04:38:32.864Z,20.42
2017-10-06T04:41:00.124Z,20.48
2017-10-06T04:43:27.393Z,20.48
2017-10-06T04:45:54.838Z,20.52
2017-10-06T04:48:22.087Z,20.54
2017-10-06T04:50:49.389Z,20.56
2017-10-06T04:53:16.806Z,20.55
2017-10-06T04:55:44.038Z,20.58
2017-10-06T04:58:11.400Z,20.62
2017-10-06T05:00:38.674Z,20.62
2017-10-06T05:03:06.020Z,20.64
2017-10-06T05:05:34.325Z,20.64
2017-10-06T05:08:01.731Z,20.69
2017-10-06T05:10:30.692Z,20.67
2017-10-06T05:12:59.658Z,20.69
2017-10-06T05:15:28.285Z,20.71
2017-10-06T05:17:55.744Z,20.72
2017-10-06T05:20:24.180Z,20.76
2017-10-06T05:25:24.621Z,20.81
2017-10-06T05:27:52.514Z,20.86
2017-10-06T05:30:19.828Z,20.62
2017-10-06T05:37:55.207Z,20.78
2017-10-06T05:40:23.213Z,20.87
2017-10-06T05:45:25.706Z,20.93
2017-10-06T05:50:26.303Z,21.15
2017-10-06T05:55:25.449Z,21.25
2017-10-06T05:57:54.544Z,21.27
2017-10-06T06:02:57.133Z,21.57
2017-10-06T06:07:58.740Z,21.72
2017-10-06T06:10:26.238Z,21.79
2017-10-06T06:12:53.807Z,21.78
2017-10-06T06:17:54.078Z,21.95
2017-10-06T06:20:21.585Z,22.05
2017-10-06T06:22:51.052Z,22.03
2017-10-06T06:43:13.598Z,22.33
2017-10-06T06:45:42.909Z,22.41
2017-10-06T06:53:18.059Z,22.59
2017-10-06T07:03:21.957Z,22.87
2017-10-06T07:05:52.643Z,22.87
2017-10-06T07:16:01.753Z,22.89
2017-10-06T07:26:09.325Z,22.90
2017-10-06T07:28:37.434Z,22.93
2017-10-06T07:38:44.726Z,23.05
2017-10-06T07:56:30.859Z,23.21
2017-10-06T07:58:58.673Z,23.41
2017-10-06T08:01:29.707Z,23.62
2017-10-06T08:16:43.343Z,23.42
2017-10-06T08:47:33.045Z,23.97
2017-10-06T10:17:39.259Z,24.57
2017-10-06T10:29:00.741Z,24.59
2017-10-06T10:47:39.832Z,25.05
2017-10-06T12:06:44.826Z,25.57
2017-10-06T12:09:15.960Z,25.68
2017-10-06T12:17:07.365Z,25.41
2017-10-06T12:51:33.801Z,25.81
2017-10-06T13:04:19.639Z,25.72
2017-10-06T13:14:48.990Z,25.82
2017-10-06T13:17:20.773Z,25.55
2017-10-06T13:27:42.846Z,25.63
2017-10-06T13:30:10.413Z,25.73
2017-10-06T13:32:37.693Z,25.64
2017-10-06T13:35:14.343Z,25.53
2017-10-06T13:37:49.041Z,25.63
2017-10-06T13:40:27.234Z,25.71
2017-10-06T13:45:29.449Z,25.55
2017-10-06T13:47:57.323Z,25.69
2017-10-06T13:50:37.523Z,25.49
2017-10-06T13:53:06.542Z,25.55
2017-10-06T13:55:36.497Z,25.56
2017-10-06T14:03:12.743Z,25.36
2017-10-06T14:05:40.475Z,25.36
2017-10-06T14:08:07.780Z,25.23
2017-10-06T14:10:38.978Z,25.32
2017-10-06T14:13:06.363Z,25.50
2017-10-06T14:15:37.942Z,25.43
2017-10-06T14:18:07.616Z,25.51
2017-10-06T14:23:23.199Z,25.34
2017-10-06T14:33:29.508Z,25.40
2017-10-06T14:35:56.895Z,25.44
2017-10-06T14:38:24.510Z,25.46
2017-10-06T14:40:52.958Z,25.42
2017-10-06T14:43:21.914Z,25.42
2017-10-06T14:45:49.313Z,25.30
2017-10-06T14:48:17.509Z,25.55
2017-10-06T14:50:44.743Z,25.41
2017-10-06T14:53:12.084Z,25.25
2017-10-06T15:00:47.246Z,25.34
2017-10-06T15:03:15.079Z,25.17
2017-10-06T15:05:42.325Z,25.23
2017-10-06T15:08:09.559Z,25.31
2017-10-06T15:10:36.977Z,25.17
2017-10-06T15:13:04.436Z,25.27
2017-10-06T15:15:39.649Z,25.27
2017-10-06T15:18:06.872Z,25.32
2017-10-06T15:23:07.550Z,25.23
2017-10-06T15:25:37.316Z,25.29
2017-10-06T15:30:38.382Z,25.00
2017-10-06T15:33:05.993Z,25.10
2017-10-06T15:35:33.601Z,25.09
2017-10-06T15:38:01.915Z,25.02
2017-10-06T15:40:29.326Z,24.99
2017-10-06T15:42:56.594Z,25.00
2017-10-06T15:45:27.517Z,24.87
2017-10-06T15:50:27.190Z,24.87
2017-10-06T15:52:54.456Z,24.82
2017-10-06T15:55:21.670Z,24.78
2017-10-06T15:57:48.954Z,24.62
2017-10-06T16:00:16.302Z,24.73
2017-10-06T16:02:43.551Z,24.59
2017-10-06T16:05:11.732Z,24.58
2017-10-06T16:07:39.588Z,24.49
2017-10-06T16:10:28.805Z,24.46
2017-10-06T16:12:56.030Z,24.55
2017-10-06T16:15:23.283Z,24.49
2017-10-06T16:17:50.541Z,24.62
2017-10-06T16:20:17.737Z,24.40
2017-10-06T16:22:46.863Z,24.32
2017-10-06T16:25:21.353Z,24.31
2017-10-06T16:27:48.631Z,24.23
2017-10-06T16:30:15.980Z,24.40
2017-10-06T16:32:43.236Z,24.25
2017-10-06T16:35:10.551Z,24.27
2017-10-06T16:37:37.835Z,24.23
2017-10-06T16:40:05.130Z,24.32
2017-10-06T16:42:32.679Z,24.24
2017-10-06T16:44:59.970Z,24.22
2017-10-06T16:47:27.265Z,24.26
2017-10-06T16:50:11.808Z,24.16
2017-10-06T16:52:39.059Z,24.16
2017-10-06T16:55:06.311Z,24.17
2017-10-06T16:57:33.570Z,24.10
2017-10-06T17:00:00.988Z,24.15
2017-10-06T17:02:29.143Z,24.19
2017-10-06T17:04:56.547Z,24.15
2017-10-06T17:07:23.895Z,24.19
2017-10-06T17:09:51.280Z,24.24
2017-10-06T17:12:18.820Z,24.20
2017-10-06T17:14:46.153Z,24.25
2017-10-06T17:17:13.431Z,24.23
2017-10-06T17:19:40.733Z,24.25
2017-10-06T17:22:08.088Z,24.28
2017-10-06T17:24:35.412Z,24.26
2017-10-06T17:27:02.736Z,24.28
2017-10-06T17:29:30.049Z,24.33
2017-10-06T17:31:57.308Z,24.24
2017-10-06T17:49:42.017Z,24.18
2017-10-06T17:54:47.175Z,24.15
2017-10-06T17:57:14.447Z,24.05
2017-10-06T17:59:41.699Z,24.40
2017-10-06T18:02:08.946Z,24.52
2017-10-06T18:04:36.440Z,24.54
2017-10-06T18:07:03.643Z,24.53
2017-10-06T18:09:30.895Z,24.52
2017-10-06T18:11:58.123Z,24.52
2017-10-06T18:14:25.445Z,24.48
2017-10-06T18:16:52.688Z,24.44
2017-10-06T18:19:19.999Z,24.40
2017-10-06T18:21:47.747Z,24.36
2017-10-06T18:24:15.153Z,24.34
2017-10-06T18:26:42.624Z,24.27
2017-10-06T18:29:09.866Z,24.22
2017-10-06T18:31:37.147Z,24.15
2017-10-06T18:34:04.473Z,24.09
2017-10-06T18:36:31.948Z,24.04
2017-10-06T18:38:59.301Z,24.00
2017-10-06T18:41:26.601Z,23.93
2017-10-06T18:43:53.966Z,23.88
2017-10-06T18:46:21.209Z,23.84
2017-10-06T18:48:48.523Z,23.79
2017-10-06T18:51:15.892Z,23.76
2017-10-06T18:53:43.220Z,23.70
2017-10-06T18:56:10.426Z,23.67
2017-10-06T18:58:37.744Z,23.63
2017-10-06T19:01:05.031Z,23.60
2017-10-06T19:03:32.376Z,23.56
2017-10-06T19:05:59.635Z,23.53
2017-10-06T19:08:27.060Z,23.50
2017-10-06T19:10:54.377Z,23.46
2017-10-06T19:13:21.608Z,23.43
2017-10-06T19:15:48.827Z,23.43
2017-10-06T19:18:16.095Z,23.43
2017-10-06T19:20:43.330Z,23.42
2017-10-06T19:23:10.523Z,23.41
2017-10-06T19:25:37.760Z,23.37
2017-10-06T19:28:05.146Z,23.33
2017-10-06T19:30:32.445Z,23.31
2017-10-06T19:32:59.739Z,23.26
2017-10-06T19:35:26.944Z,23.22
2017-10-06T19:37:54.156Z,23.19
2017-10-06T19:40:34.454Z,23.17
2017-10-06T19:43:01.706Z,23.14
2017-10-06T19:45:28.911Z,23.12
2017-10-06T19:47:56.119Z,23.09
2017-10-06T19:50:23.596Z,23.06
2017-10-06T19:52:50.856Z,23.02
2017-10-06T19:55:18.072Z,23.00
2017-10-06T19:57:45.327Z,22.98
2017-10-06T20:00:27.279Z,22.94
2017-10-06T20:02:54.640Z,22.92
2017-10-06T20:05:21.888Z,22.90
2017-10-06T20:07:49.167Z,22.88
2017-10-06T20:10:16.423Z,22.86
2017-10-06T20:12:43.814Z,22.83
2017-10-06T20:15:11.017Z,22.80
2017-10-06T20:17:38.478Z,22.79
2017-10-06T20:20:05.915Z,22.76
2017-10-06T20:22:33.350Z,22.74
2017-10-06T20:25:00.773Z,22.71
2017-10-06T20:27:28.020Z,22.70
2017-10-06T20:29:55.249Z,22.68
2017-10-06T20:32:22.638Z,22.67
2017-10-06T20:34:49.955Z,22.65
2017-10-06T20:37:17.325Z,22.63
2017-10-06T20:39:44.492Z,22.61
2017-10-06T20:42:11.715Z,22.60
2017-10-06T20:44:39.093Z,22.58
2017-10-06T20:47:06.391Z,22.56
2017-10-06T20:49:33.696Z,22.55
2017-10-06T20:52:01.039Z,22.53
2017-10-06T20:54:36.784Z,22.51
2017-10-06T20:57:04.124Z,22.47
2017-10-06T20:59:31.378Z,22.49
2017-10-06T21:01:58.647Z,22.49
2017-10-06T21:04:26.113Z,22.45
2017-10-06T21:06:53.391Z,22.44
2017-10-06T21:09:20.591Z,22.42
2017-10-06T21:11:47.941Z,22.42
2017-10-06T21:14:15.173Z,22.39
2017-10-06T21:28:01.073Z,22.30
2017-10-06T21:30:41.743Z,22.29
2017-10-06T21:33:08.940Z,22.27
2017-10-06T21:35:36.359Z,22.27
2017-10-06T21:38:03.612Z,22.26
2017-10-06T21:40:31.076Z,22.25
2017-10-06T21:42:58.283Z,22.22
2017-10-06T21:45:25.514Z,22.20
2017-10-06T21:47:52.855Z,22.19
2017-10-06T21:50:20.386Z,22.18
2017-10-06T21:52:47.734Z,22.17
2017-10-06T21:55:15.004Z,22.14
2017-10-06T21:57:42.329Z,22.16
2017-10-06T22:00:09.548Z,22.16
2017-10-06T22:02:36.750Z,22.12
2017-10-06T22:05:04.094Z,22.09
2017-10-06T22:07:31.344Z,22.09
2017-10-06T22:09:58.810Z,22.07
2017-10-06T22:12:26.035Z,22.05
2017-10-06T22:14:53.275Z,22.04
2017-10-06T22:17:20.574Z,22.03
2017-10-06T22:19:47.773Z,22.03
2017-10-06T22:22:15.021Z,22.02
2017-10-06T22:24:42.596Z,21.98
2017-10-06T22:27:09.818Z,21.99
2017-10-06T22:29:37.306Z,21.98
2017-10-06T22:32:04.527Z,21.97
2017-10-06T22:34:31.797Z,21.94
2017-10-06T22:36:59.235Z,21.93
2017-10-06T22:39:26.403Z,21.92
2017-10-06T22:41:53.833Z,21.91
2017-10-06T22:44:21.025Z,21.88
2017-10-06T22:46:48.413Z,21.88
2017-10-06T22:49:15.659Z,21.87
2017-10-06T22:51:42.981Z,21.86
2017-10-06T22:54:10.341Z,21.87
2017-10-06T22:56:37.733Z,21.85
2017-10-06T22:59:04.958Z,21.83
2017-10-06T23:01:32.259Z,21.80
2017-10-06T23:03:59.550Z,21.78
2017-10-06T23:06:26.774Z,21.77
2017-10-06T23:08:54.001Z,21.77
2017-10-06T23:11:21.173Z,21.76
2017-10-06T23:13:48.660Z,21.75
2017-10-06T23:16:16.104Z,21.73
2017-10-06T23:18:43.591Z,21.72
2017-10-06T23:21:10.833Z,21.71
2017-10-06T23:23:38.158Z,21.70
2017-10-06T23:26:05.449Z,21.69
2017-10-06T23:28:32.739Z,21.67
2017-10-06T23:31:00.245Z,21.68
2017-10-06T23:33:27.430Z,21.66
2017-10-06T23:35:54.893Z,21.65
2017-10-06T23:38:22.103Z,21.62
2017-10-06T23:40:49.540Z,21.62
2017-10-06T23:43:16.723Z,21.60
2017-10-06T23:45:44.217Z,21.59
2017-10-06T23:48:11.402Z,21.58
2017-10-06T23:50:38.600Z,21.58
2017-10-06T23:53:05.822Z,21.56
2017-10-06T23:55:33.418Z,21.56
2017-10-06T23:58:00.627Z,21.56
